sensor_id;sensor_type;location;lat;lon;timestamp;P1;durP1;ratioP1;P2;durP2;ratioP2
43990;SDS011;29654;50.784;20.604;2023-04-21T00:04:29;6.82;;;5.90;;
43990;SDS011;29654;50.784;20.604;2023-04-21T00:09:32;7.93;;;6.35;;
43990;SDS011;29654;50.784;20.604;2023-04-21T00:14:36;6.30;;;5.65;;
43990;SDS011;29654;50.784;20.604;2023-04-21T00:19:39;6.47;;;5.88;;
43990;SDS011;29654;50.784;20.604;2023-04-21T00:24:42;7.15;;;5.57;;
43990;SDS011;29654;50.784;20.604;2023-04-21T00:29:46;8.40;;;6.38;;
43990;SDS011;29654;50.784;20.604;2023-04-21T00:34:48;6.82;;;5.88;;
43990;SDS011;29654;50.784;20.604;2023-04-21T00:39:51;8.40;;;6.38;;
43990;SDS011;29654;50.784;20.604;2023-04-21T00:44:55;7.65;;;5.13;;
43990;SDS011;29654;50.784;20.604;2023-04-21T00:49:58;9.18;;;5.93;;
43990;SDS011;29654;50.784;20.604;2023-04-21T00:55:03;7.85;;;6.68;;
43990;SDS011;29654;50.784;20.604;2023-04-21T01:00:08;8.07;;;6.80;;
43990;SDS011;29654;50.784;20.604;2023-04-21T01:05:13;7.10;;;6.35;;
43990;SDS011;29654;50.784;20.604;2023-04-21T01:10:17;8.63;;;6.20;;
43990;SDS011;29654;50.784;20.604;2023-04-21T01:15:21;6.85;;;5.50;;
43990;SDS011;29654;50.784;20.604;2023-04-21T01:20:25;8.60;;;6.57;;
43990;SDS011;29654;50.784;20.604;2023-04-21T01:25:30;6.07;;;5.47;;
43990;SDS011;29654;50.784;20.604;2023-04-21T01:30:32;8.23;;;6.95;;
43990;SDS011;29654;50.784;20.604;2023-04-21T01:35:35;6.80;;;6.07;;
43990;SDS011;29654;50.784;20.604;2023-04-21T01:40:39;8.82;;;6.88;;
43990;SDS011;29654;50.784;20.604;2023-04-21T01:45:42;8.48;;;6.10;;
43990;SDS011;29654;50.784;20.604;2023-04-21T01:50:45;7.25;;;6.57;;
43990;SDS011;29654;50.784;20.604;2023-04-21T01:55:49;7.88;;;6.88;;
43990;SDS011;29654;50.784;20.604;2023-04-21T02:00:51;8.80;;;7.22;;
43990;SDS011;29654;50.784;20.604;2023-04-21T02:05:55;8.50;;;6.85;;
43990;SDS011;29654;50.784;20.604;2023-04-21T02:11:01;10.32;;;7.43;;
43990;SDS011;29654;50.784;20.604;2023-04-21T02:16:04;8.40;;;6.95;;
43990;SDS011;29654;50.784;20.604;2023-04-21T02:21:07;9.07;;;6.97;;
43990;SDS011;29654;50.784;20.604;2023-04-21T02:26:11;7.28;;;6.57;;
43990;SDS011;29654;50.784;20.604;2023-04-21T02:31:14;8.00;;;7.20;;
43990;SDS011;29654;50.784;20.604;2023-04-21T02:36:16;8.38;;;6.95;;
43990;SDS011;29654;50.784;20.604;2023-04-21T02:41:21;8.00;;;7.28;;
43990;SDS011;29654;50.784;20.604;2023-04-21T02:46:23;8.00;;;7.20;;
43990;SDS011;29654;50.784;20.604;2023-04-21T02:51:26;7.72;;;6.93;;
43990;SDS011;29654;50.784;20.604;2023-04-21T02:56:30;8.70;;;7.72;;
43990;SDS011;29654;50.784;20.604;2023-04-21T03:01:33;8.50;;;7.28;;
43990;SDS011;29654;50.784;20.604;2023-04-21T03:06:36;8.38;;;7.55;;
43990;SDS011;29654;50.784;20.604;2023-04-21T03:11:40;9.18;;;7.07;;
43990;SDS011;29654;50.784;20.604;2023-04-21T03:16:43;8.43;;;7.57;;
43990;SDS011;29654;50.784;20.604;2023-04-21T03:21:46;8.18;;;7.32;;
43990;SDS011;29654;50.784;20.604;2023-04-21T03:26:50;7.47;;;6.65;;
43990;SDS011;29654;50.784;20.604;2023-04-21T03:31:53;9.35;;;7.65;;
43990;SDS011;29654;50.784;20.604;2023-04-21T03:36:56;9.93;;;8.07;;
43990;SDS011;29654;50.784;20.604;2023-04-21T03:42:00;10.50;;;7.88;;
43990;SDS011;29654;50.784;20.604;2023-04-21T03:47:04;9.35;;;7.43;;
43990;SDS011;29654;50.784;20.604;2023-04-21T03:52:06;7.10;;;6.40;;
43990;SDS011;29654;50.784;20.604;2023-04-21T03:57:11;10.13;;;7.88;;
43990;SDS011;29654;50.784;20.604;2023-04-21T04:02:13;8.63;;;6.88;;
43990;SDS011;29654;50.784;20.604;2023-04-21T04:07:16;10.20;;;8.13;;
43990;SDS011;29654;50.784;20.604;2023-04-21T04:12:20;9.35;;;7.72;;
43990;SDS011;29654;50.784;20.604;2023-04-21T04:17:22;8.32;;;7.53;;
43990;SDS011;29654;50.784;20.604;2023-04-21T04:22:25;9.38;;;7.57;;
43990;SDS011;29654;50.784;20.604;2023-04-21T04:27:29;9.93;;;7.70;;
43990;SDS011;29654;50.784;20.604;2023-04-21T04:32:32;8.73;;;7.47;;
43990;SDS011;29654;50.784;20.604;2023-04-21T04:37:37;9.15;;;7.43;;
43990;SDS011;29654;50.784;20.604;2023-04-21T04:42:41;10.02;;;8.57;;
43990;SDS011;29654;50.784;20.604;2023-04-21T04:47:45;10.25;;;8.38;;
43990;SDS011;29654;50.784;20.604;2023-04-21T04:52:47;12.60;;;8.10;;
43990;SDS011;29654;50.784;20.604;2023-04-21T04:57:51;12.05;;;8.93;;
43990;SDS011;29654;50.784;20.604;2023-04-21T05:02:54;7.95;;;7.20;;
43990;SDS011;29654;50.784;20.604;2023-04-21T05:07:56;9.48;;;7.82;;
43990;SDS011;29654;50.784;20.604;2023-04-21T05:13:01;10.52;;;7.65;;
43990;SDS011;29654;50.784;20.604;2023-04-21T05:18:03;10.70;;;7.93;;
43990;SDS011;29654;50.784;20.604;2023-04-21T05:23:06;8.63;;;7.68;;
43990;SDS011;29654;50.784;20.604;2023-04-21T05:28:10;9.38;;;7.25;;
43990;SDS011;29654;50.784;20.604;2023-04-21T05:33:13;8.15;;;7.35;;
43990;SDS011;29654;50.784;20.604;2023-04-21T05:38:18;9.63;;;6.45;;
43990;SDS011;29654;50.784;20.604;2023-04-21T05:43:22;7.35;;;6.63;;
43990;SDS011;29654;50.784;20.604;2023-04-21T05:48:25;6.30;;;5.63;;
43990;SDS011;29654;50.784;20.604;2023-04-21T05:53:27;7.47;;;6.53;;
43990;SDS011;29654;50.784;20.604;2023-04-21T05:58:31;6.55;;;5.78;;
43990;SDS011;29654;50.784;20.604;2023-04-21T06:03:35;6.03;;;5.53;;
43990;SDS011;29654;50.784;20.604;2023-04-21T06:08:37;6.43;;;5.75;;
43990;SDS011;29654;50.784;20.604;2023-04-21T06:13:41;7.75;;;5.85;;
43990;SDS011;29654;50.784;20.604;2023-04-21T06:18:44;6.60;;;5.47;;
43990;SDS011;29654;50.784;20.604;2023-04-21T06:23:46;6.60;;;5.65;;
43990;SDS011;29654;50.784;20.604;2023-04-21T06:28:50;5.65;;;5.07;;
43990;SDS011;29654;50.784;20.604;2023-04-21T06:33:53;6.10;;;5.50;;
43990;SDS011;29654;50.784;20.604;2023-04-21T06:38:55;6.68;;;5.70;;
43990;SDS011;29654;50.784;20.604;2023-04-21T06:43:59;5.88;;;5.28;;
43990;SDS011;29654;50.784;20.604;2023-04-21T06:49:02;5.40;;;4.90;;
43990;SDS011;29654;50.784;20.604;2023-04-21T06:54:05;5.03;;;4.53;;
43990;SDS011;29654;50.784;20.604;2023-04-21T06:59:09;4.80;;;4.35;;
43990;SDS011;29654;50.784;20.604;2023-04-21T07:04:12;4.93;;;4.43;;
43990;SDS011;29654;50.784;20.604;2023-04-21T07:09:15;8.32;;;6.78;;
43990;SDS011;29654;50.784;20.604;2023-04-21T07:14:19;4.93;;;4.43;;
43990;SDS011;29654;50.784;20.604;2023-04-21T07:19:22;3.75;;;3.38;;
43990;SDS011;29654;50.784;20.604;2023-04-21T07:24:24;4.47;;;4.07;;
43990;SDS011;29654;50.784;20.604;2023-04-21T07:29:28;4.72;;;3.60;;
43990;SDS011;29654;50.784;20.604;2023-04-21T07:34:31;3.97;;;2.80;;
43990;SDS011;29654;50.784;20.604;2023-04-21T07:39:33;3.20;;;2.92;;
43990;SDS011;29654;50.784;20.604;2023-04-21T07:44:37;3.08;;;2.88;;
43990;SDS011;29654;50.784;20.604;2023-04-21T07:49:40;3.17;;;2.88;;
43990;SDS011;29654;50.784;20.604;2023-04-21T07:54:42;3.65;;;3.10;;
43990;SDS011;29654;50.784;20.604;2023-04-21T07:59:46;3.33;;;3.03;;
43990;SDS011;29654;50.784;20.604;2023-04-21T08:04:49;2.95;;;2.60;;
43990;SDS011;29654;50.784;20.604;2023-04-21T08:09:52;2.67;;;2.35;;
43990;SDS011;29654;50.784;20.604;2023-04-21T08:14:56;3.05;;;2.42;;
43990;SDS011;29654;50.784;20.604;2023-04-21T08:19:59;2.65;;;2.45;;
43990;SDS011;29654;50.784;20.604;2023-04-21T08:25:02;2.72;;;2.42;;
43990;SDS011;29654;50.784;20.604;2023-04-21T08:30:07;3.42;;;2.58;;
43990;SDS011;29654;50.784;20.604;2023-04-21T08:35:11;2.88;;;2.67;;
43990;SDS011;29654;50.784;20.604;2023-04-21T08:40:13;2.95;;;2.58;;
43990;SDS011;29654;50.784;20.604;2023-04-21T08:45:17;3.13;;;2.83;;
43990;SDS011;29654;50.784;20.604;2023-04-21T08:50:20;2.97;;;2.75;;
43990;SDS011;29654;50.784;20.604;2023-04-21T08:55:27;4.10;;;2.60;;
43990;SDS011;29654;50.784;20.604;2023-04-21T09:00:32;4.70;;;3.05;;
43990;SDS011;29654;50.784;20.604;2023-04-21T09:05:35;3.10;;;2.90;;
43990;SDS011;29654;50.784;20.604;2023-04-21T09:10:44;3.25;;;2.95;;
43990;SDS011;29654;50.784;20.604;2023-04-21T09:15:50;3.83;;;3.45;;
43990;SDS011;29654;50.784;20.604;2023-04-21T09:21:03;4.60;;;3.58;;
43990;SDS011;29654;50.784;20.604;2023-04-21T09:26:08;3.78;;;3.00;;
43990;SDS011;29654;50.784;20.604;2023-04-21T09:31:13;3.50;;;2.80;;
43990;SDS011;29654;50.784;20.604;2023-04-21T09:36:17;3.78;;;3.10;;
43990;SDS011;29654;50.784;20.604;2023-04-21T09:41:21;3.10;;;2.90;;
43990;SDS011;29654;50.784;20.604;2023-04-21T09:46:25;2.47;;;2.28;;
43990;SDS011;29654;50.784;20.604;2023-04-21T09:51:32;2.40;;;2.20;;
43990;SDS011;29654;50.784;20.604;2023-04-21T09:56:36;3.35;;;3.05;;
43990;SDS011;29654;50.784;20.604;2023-04-21T10:01:44;3.15;;;2.85;;
43990;SDS011;29654;50.784;20.604;2023-04-21T10:06:50;3.95;;;2.30;;
43990;SDS011;29654;50.784;20.604;2023-04-21T10:11:53;2.75;;;2.17;;
43990;SDS011;29654;50.784;20.604;2023-04-21T10:17:00;3.08;;;2.63;;
43990;SDS011;29654;50.784;20.604;2023-04-21T10:22:05;2.90;;;2.58;;
43990;SDS011;29654;50.784;20.604;2023-04-21T10:27:09;2.20;;;2.10;;
43990;SDS011;29654;50.784;20.604;2023-04-21T10:32:14;2.97;;;2.67;;
43990;SDS011;29654;50.784;20.604;2023-04-21T10:37:37;3.13;;;2.40;;
43990;SDS011;29654;50.784;20.604;2023-04-21T10:42:40;2.28;;;2.05;;
43990;SDS011;29654;50.784;20.604;2023-04-21T10:47:45;1.98;;;1.88;;
43990;SDS011;29654;50.784;20.604;2023-04-21T10:52:51;5.22;;;2.70;;
43990;SDS011;29654;50.784;20.604;2023-04-21T10:58:00;2.78;;;2.58;;
43990;SDS011;29654;50.784;20.604;2023-04-21T11:03:06;2.63;;;2.42;;
43990;SDS011;29654;50.784;20.604;2023-04-21T11:08:10;3.38;;;2.20;;
43990;SDS011;29654;50.784;20.604;2023-04-21T11:13:14;4.55;;;3.10;;
43990;SDS011;29654;50.784;20.604;2023-04-21T11:18:18;2.35;;;2.15;;
43990;SDS011;29654;50.784;20.604;2023-04-21T11:23:21;2.35;;;2.15;;
43990;SDS011;29654;50.784;20.604;2023-04-21T11:28:24;2.53;;;2.33;;
43990;SDS011;29654;50.784;20.604;2023-04-21T11:33:29;2.58;;;2.28;;
43990;SDS011;29654;50.784;20.604;2023-04-21T11:38:35;2.42;;;2.22;;
43990;SDS011;29654;50.784;20.604;2023-04-21T11:43:40;3.08;;;2.78;;
43990;SDS011;29654;50.784;20.604;2023-04-21T11:48:48;3.20;;;2.00;;
43990;SDS011;29654;50.784;20.604;2023-04-21T11:54:00;3.33;;;2.20;;
43990;SDS011;29654;50.784;20.604;2023-04-21T11:59:06;2.63;;;2.42;;
43990;SDS011;29654;50.784;20.604;2023-04-21T12:04:13;2.08;;;1.88;;
43990;SDS011;29654;50.784;20.604;2023-04-21T12:09:18;2.30;;;2.10;;
43990;SDS011;29654;50.784;20.604;2023-04-21T12:14:22;2.25;;;1.98;;
43990;SDS011;29654;50.784;20.604;2023-04-21T12:19:35;2.13;;;1.95;;
43990;SDS011;29654;50.784;20.604;2023-04-21T12:24:40;2.85;;;2.28;;
43990;SDS011;29654;50.784;20.604;2023-04-21T12:29:43;2.72;;;2.15;;
43990;SDS011;29654;50.784;20.604;2023-04-21T12:34:47;2.28;;;1.98;;
43990;SDS011;29654;50.784;20.604;2023-04-21T12:39:49;2.33;;;2.15;;
43990;SDS011;29654;50.784;20.604;2023-04-21T12:44:52;2.25;;;1.95;;
43990;SDS011;29654;50.784;20.604;2023-04-21T12:49:57;2.60;;;2.40;;
43990;SDS011;29654;50.784;20.604;2023-04-21T12:55:00;3.65;;;2.28;;
43990;SDS011;29654;50.784;20.604;2023-04-21T13:00:03;1.85;;;1.75;;
43990;SDS011;29654;50.784;20.604;2023-04-21T13:05:09;2.20;;;2.00;;
43990;SDS011;29654;50.784;20.604;2023-04-21T13:10:13;2.65;;;2.15;;
43990;SDS011;29654;50.784;20.604;2023-04-21T13:15:15;2.20;;;1.75;;
43990;SDS011;29654;50.784;20.604;2023-04-21T13:20:20;2.17;;;1.92;;
43990;SDS011;29654;50.784;20.604;2023-04-21T13:25:22;1.92;;;1.83;;
43990;SDS011;29654;50.784;20.604;2023-04-21T13:30:25;2.63;;;2.20;;
43990;SDS011;29654;50.784;20.604;2023-04-21T13:35:29;2.75;;;1.70;;
43990;SDS011;29654;50.784;20.604;2023-04-21T13:40:32;2.47;;;2.28;;
43990;SDS011;29654;50.784;20.604;2023-04-21T13:45:34;2.65;;;2.13;;
43990;SDS011;29654;50.784;20.604;2023-04-21T13:50:39;2.28;;;2.00;;
43990;SDS011;29654;50.784;20.604;2023-04-21T13:55:41;1.95;;;1.80;;
43990;SDS011;29654;50.784;20.604;2023-04-21T14:00:44;2.50;;;2.08;;
43990;SDS011;29654;50.784;20.604;2023-04-21T14:05:48;1.90;;;1.80;;
43990;SDS011;29654;50.784;20.604;2023-04-21T14:10:51;2.17;;;1.98;;
43990;SDS011;29654;50.784;20.604;2023-04-21T14:15:54;2.55;;;2.10;;
43990;SDS011;29654;50.784;20.604;2023-04-21T14:20:59;2.58;;;1.75;;
43990;SDS011;29654;50.784;20.604;2023-04-21T14:26:02;2.28;;;1.90;;
43990;SDS011;29654;50.784;20.604;2023-04-21T14:31:05;2.05;;;1.83;;
43990;SDS011;29654;50.784;20.604;2023-04-21T14:36:09;2.42;;;2.22;;
43990;SDS011;29654;50.784;20.604;2023-04-21T14:41:12;2.13;;;1.85;;
43990;SDS011;29654;50.784;20.604;2023-04-21T14:46:14;2.17;;;1.98;;
43990;SDS011;29654;50.784;20.604;2023-04-21T14:51:18;2.13;;;1.90;;
43990;SDS011;29654;50.784;20.604;2023-04-21T14:56:21;2.25;;;2.05;;
43990;SDS011;29654;50.784;20.604;2023-04-21T15:01:23;2.47;;;2.28;;
43990;SDS011;29654;50.784;20.604;2023-04-21T15:06:27;1.90;;;1.70;;
43990;SDS011;29654;50.784;20.604;2023-04-21T15:11:30;3.63;;;2.05;;
43990;SDS011;29654;50.784;20.604;2023-04-21T15:16:33;2.22;;;2.03;;
43990;SDS011;29654;50.784;20.604;2023-04-21T15:21:37;2.17;;;1.85;;
43990;SDS011;29654;50.784;20.604;2023-04-21T15:26:40;4.32;;;1.75;;
43990;SDS011;29654;50.784;20.604;2023-04-21T15:31:42;1.85;;;1.75;;
43990;SDS011;29654;50.784;20.604;2023-04-21T15:36:46;2.80;;;2.17;;
43990;SDS011;29654;50.784;20.604;2023-04-21T15:41:49;1.90;;;1.77;;
43990;SDS011;29654;50.784;20.604;2023-04-21T15:46:52;2.65;;;2.15;;
43990;SDS011;29654;50.784;20.604;2023-04-21T15:51:56;2.65;;;2.08;;
43990;SDS011;29654;50.784;20.604;2023-04-21T15:56:59;3.53;;;2.13;;
43990;SDS011;29654;50.784;20.604;2023-04-21T16:02:02;2.58;;;2.03;;
43990;SDS011;29654;50.784;20.604;2023-04-21T16:07:06;2.22;;;2.03;;
43990;SDS011;29654;50.784;20.604;2023-04-21T16:12:08;2.97;;;2.65;;
43990;SDS011;29654;50.784;20.604;2023-04-21T16:17:11;3.15;;;2.95;;
43990;SDS011;29654;50.784;20.604;2023-04-21T16:22:15;2.45;;;2.13;;
43990;SDS011;29654;50.784;20.604;2023-04-21T16:27:19;2.30;;;2.10;;
43990;SDS011;29654;50.784;20.604;2023-04-21T16:32:21;3.25;;;2.92;;
43990;SDS011;29654;50.784;20.604;2023-04-21T16:37:26;2.55;;;2.10;;
43990;SDS011;29654;50.784;20.604;2023-04-21T16:42:28;2.30;;;2.15;;
43990;SDS011;29654;50.784;20.604;2023-04-21T16:47:31;6.20;;;5.50;;
43990;SDS011;29654;50.784;20.604;2023-04-21T16:52:38;5.72;;;5.22;;
43990;SDS011;29654;50.784;20.604;2023-04-21T16:57:41;4.90;;;3.30;;
43990;SDS011;29654;50.784;20.604;2023-04-21T17:02:43;3.00;;;2.70;;
43990;SDS011;29654;50.784;20.604;2023-04-21T17:07:47;5.80;;;4.22;;
43990;SDS011;29654;50.784;20.604;2023-04-21T17:12:50;3.28;;;2.97;;
43990;SDS011;29654;50.784;20.604;2023-04-21T17:17:53;4.43;;;2.70;;
43990;SDS011;29654;50.784;20.604;2023-04-21T17:22:57;11.00;;;6.13;;
43990;SDS011;29654;50.784;20.604;2023-04-21T17:27:59;6.40;;;5.13;;
43990;SDS011;29654;50.784;20.604;2023-04-21T17:33:02;4.15;;;3.03;;
43990;SDS011;29654;50.784;20.604;2023-04-21T17:38:07;4.03;;;3.58;;
43990;SDS011;29654;50.784;20.604;2023-04-21T17:43:09;4.47;;;2.92;;
43990;SDS011;29654;50.784;20.604;2023-04-21T17:48:12;3.08;;;2.88;;
43990;SDS011;29654;50.784;20.604;2023-04-21T17:53:16;4.95;;;3.72;;
43990;SDS011;29654;50.784;20.604;2023-04-21T17:58:19;4.47;;;3.58;;
43990;SDS011;29654;50.784;20.604;2023-04-21T18:03:21;5.40;;;4.15;;
43990;SDS011;29654;50.784;20.604;2023-04-21T18:08:25;7.70;;;4.18;;
43990;SDS011;29654;50.784;20.604;2023-04-21T18:13:28;5.85;;;4.30;;
43990;SDS011;29654;50.784;20.604;2023-04-21T18:18:31;4.70;;;4.25;;
43990;SDS011;29654;50.784;20.604;2023-04-21T18:23:35;5.10;;;4.20;;
43990;SDS011;29654;50.784;20.604;2023-04-21T18:28:37;5.65;;;4.53;;
43990;SDS011;29654;50.784;20.604;2023-04-21T18:33:40;4.60;;;4.10;;
43990;SDS011;29654;50.784;20.604;2023-04-21T18:38:45;5.50;;;4.18;;
43990;SDS011;29654;50.784;20.604;2023-04-21T18:43:47;6.90;;;4.35;;
43990;SDS011;29654;50.784;20.604;2023-04-21T18:48:50;5.95;;;4.50;;
43990;SDS011;29654;50.784;20.604;2023-04-21T18:53:55;6.63;;;4.72;;
43990;SDS011;29654;50.784;20.604;2023-04-21T18:58:57;7.95;;;5.70;;
43990;SDS011;29654;50.784;20.604;2023-04-21T19:04:00;10.60;;;6.85;;
43990;SDS011;29654;50.784;20.604;2023-04-21T19:09:04;12.95;;;10.68;;
43990;SDS011;29654;50.784;20.604;2023-04-21T19:14:06;9.85;;;6.80;;
43990;SDS011;29654;50.784;20.604;2023-04-21T19:19:09;12.57;;;7.22;;
43990;SDS011;29654;50.784;20.604;2023-04-21T19:24:13;10.30;;;7.05;;
43990;SDS011;29654;50.784;20.604;2023-04-21T19:29:15;8.88;;;6.05;;
43990;SDS011;29654;50.784;20.604;2023-04-21T19:34:18;7.68;;;6.88;;
43990;SDS011;29654;50.784;20.604;2023-04-21T19:39:22;9.55;;;8.13;;
43990;SDS011;29654;50.784;20.604;2023-04-21T19:44:25;10.52;;;7.80;;
43990;SDS011;29654;50.784;20.604;2023-04-21T19:49:27;9.35;;;7.30;;
43990;SDS011;29654;50.784;20.604;2023-04-21T19:54:31;10.40;;;8.65;;
43990;SDS011;29654;50.784;20.604;2023-04-21T19:59:34;10.07;;;7.35;;
43990;SDS011;29654;50.784;20.604;2023-04-21T20:04:37;10.02;;;8.43;;
43990;SDS011;29654;50.784;20.604;2023-04-21T20:09:41;10.23;;;8.45;;
43990;SDS011;29654;50.784;20.604;2023-04-21T20:14:43;11.13;;;9.68;;
43990;SDS011;29654;50.784;20.604;2023-04-21T20:19:46;12.85;;;9.93;;
43990;SDS011;29654;50.784;20.604;2023-04-21T20:24:50;13.50;;;9.32;;
43990;SDS011;29654;50.784;20.604;2023-04-21T20:29:53;13.60;;;9.73;;
43990;SDS011;29654;50.784;20.604;2023-04-21T20:34:55;13.50;;;9.30;;
43990;SDS011;29654;50.784;20.604;2023-04-21T20:40:00;11.95;;;10.30;;
43990;SDS011;29654;50.784;20.604;2023-04-21T20:45:06;14.63;;;10.43;;
43990;SDS011;29654;50.784;20.604;2023-04-21T20:50:10;14.30;;;10.35;;
43990;SDS011;29654;50.784;20.604;2023-04-21T20:55:14;10.10;;;8.00;;
43990;SDS011;29654;50.784;20.604;2023-04-21T21:00:17;11.68;;;9.20;;
43990;SDS011;29654;50.784;20.604;2023-04-21T21:05:20;14.50;;;11.18;;
43990;SDS011;29654;50.784;20.604;2023-04-21T21:10:24;14.18;;;11.00;;
43990;SDS011;29654;50.784;20.604;2023-04-21T21:15:28;13.07;;;9.75;;
43990;SDS011;29654;50.784;20.604;2023-04-21T21:20:31;11.23;;;8.82;;
43990;SDS011;29654;50.784;20.604;2023-04-21T21:25:35;8.55;;;6.55;;
43990;SDS011;29654;50.784;20.604;2023-04-21T21:30:37;10.82;;;7.30;;
43990;SDS011;29654;50.784;20.604;2023-04-21T21:35:40;10.77;;;8.05;;
43990;SDS011;29654;50.784;20.604;2023-04-21T21:40:44;10.50;;;6.68;;
43990;SDS011;29654;50.784;20.604;2023-04-21T21:45:46;10.50;;;8.48;;
43990;SDS011;29654;50.784;20.604;2023-04-21T21:50:49;12.52;;;8.30;;
43990;SDS011;29654;50.784;20.604;2023-04-21T21:55:53;14.30;;;8.75;;
43990;SDS011;29654;50.784;20.604;2023-04-21T22:00:55;9.60;;;7.90;;
43990;SDS011;29654;50.784;20.604;2023-04-21T22:05:58;13.40;;;9.40;;
43990;SDS011;29654;50.784;20.604;2023-04-21T22:11:02;9.65;;;7.05;;
43990;SDS011;29654;50.784;20.604;2023-04-21T22:16:05;12.00;;;9.07;;
43990;SDS011;29654;50.784;20.604;2023-04-21T22:21:07;9.45;;;7.05;;
43990;SDS011;29654;50.784;20.604;2023-04-21T22:26:11;11.23;;;8.38;;
43990;SDS011;29654;50.784;20.604;2023-04-21T22:31:14;11.05;;;9.60;;
43990;SDS011;29654;50.784;20.604;2023-04-21T22:36:17;16.63;;;11.23;;
43990;SDS011;29654;50.784;20.604;2023-04-21T22:41:21;14.38;;;10.48;;
43990;SDS011;29654;50.784;20.604;2023-04-21T22:46:24;10.32;;;7.75;;
43990;SDS011;29654;50.784;20.604;2023-04-21T22:51:31;13.63;;;9.70;;
43990;SDS011;29654;50.784;20.604;2023-04-21T22:56:35;12.32;;;9.25;;
43990;SDS011;29654;50.784;20.604;2023-04-21T23:01:37;10.10;;;7.70;;
43990;SDS011;29654;50.784;20.604;2023-04-21T23:06:40;9.82;;;7.97;;
43990;SDS011;29654;50.784;20.604;2023-04-21T23:11:44;11.48;;;8.73;;
43990;SDS011;29654;50.784;20.604;2023-04-21T23:16:46;10.27;;;8.23;;
43990;SDS011;29654;50.784;20.604;2023-04-21T23:21:49;10.63;;;8.60;;
43990;SDS011;29654;50.784;20.604;2023-04-21T23:26:53;11.68;;;8.82;;
43990;SDS011;29654;50.784;20.604;2023-04-21T23:31:55;9.90;;;7.65;;
43990;SDS011;29654;50.784;20.604;2023-04-21T23:36:58;13.48;;;9.55;;
43990;SDS011;29654;50.784;20.604;2023-04-21T23:42:02;12.15;;;9.68;;
43990;SDS011;29654;50.784;20.604;2023-04-21T23:47:04;14.30;;;9.25;;
43990;SDS011;29654;50.784;20.604;2023-04-21T23:52:07;12.73;;;9.95;;
43990;SDS011;29654;50.784;20.604;2023-04-21T23:57:12;11.85;;;9.15;;
